createdAt,value
2022-10-18T00:00:10.661Z,76.23
2022-10-18T00:00:43.499Z,75.62
2022-10-18T00:01:15.438Z,75.29
2022-10-18T00:01:47.339Z,75.44
2022-10-18T00:02:20.201Z,75.76
2022-10-18T00:02:52.273Z,75.63
2022-10-18T00:03:24.540Z,75.61
2022-10-18T00:03:56.419Z,75.55
2022-10-18T00:04:28.332Z,75.62
2022-10-18T00:05:00.159Z,75.70
2022-10-18T00:05:32.190Z,75.87
2022-10-18T00:06:06.114Z,76.06
2022-10-18T00:06:41.126Z,76.13
2022-10-18T00:07:15.407Z,76.33
2022-10-18T00:07:47.227Z,76.30
2022-10-18T00:08:19.735Z,75.87
2022-10-18T00:08:51.750Z,75.88
2022-10-18T00:09:23.661Z,75.97
2022-10-18T00:09:55.905Z,75.93
2022-10-18T00:10:27.884Z,76.28
2022-10-18T00:10:59.719Z,76.68
2022-10-18T00:11:31.940Z,76.93
2022-10-18T00:12:04.145Z,76.98
2022-10-18T00:12:37.335Z,76.99
2022-10-18T00:13:09.344Z,77.21
2022-10-18T00:13:41.233Z,77.29
2022-10-18T00:14:13.170Z,77.61
2022-10-18T00:14:45.006Z,77.74
2022-10-18T00:15:17.676Z,77.54
2022-10-18T00:15:55.560Z,77.47
2022-10-18T00:16:27.405Z,77.22
2022-10-18T00:16:59.585Z,76.99
2022-10-18T00:17:31.618Z,76.55
2022-10-18T00:18:04.143Z,76.54
2022-10-18T00:18:35.962Z,76.22
2022-10-18T00:19:07.794Z,76.22
2022-10-18T00:19:39.611Z,76.61
2022-10-18T00:20:12.107Z,76.78
2022-10-18T00:20:43.992Z,76.90
2022-10-18T00:21:21.692Z,76.88
2022-10-18T00:21:53.522Z,76.91
2022-10-18T00:22:25.789Z,76.74
2022-10-18T00:22:57.842Z,76.13
2022-10-18T00:23:31.325Z,76.10
2022-10-18T00:24:03.849Z,76.25
2022-10-18T00:24:35.714Z,76.22
2022-10-18T00:25:08.654Z,76.15
2022-10-18T00:25:40.556Z,76.63
2022-10-18T00:26:21.149Z,76.63
2022-10-18T00:26:52.986Z,76.52
2022-10-18T00:27:25.232Z,76.45
2022-10-18T00:27:57.692Z,76.33
2022-10-18T00:28:29.625Z,76.60
2022-10-18T00:29:04.078Z,76.27
2022-10-18T00:29:35.960Z,76.28
2022-10-18T00:30:08.255Z,76.49
2022-10-18T00:30:40.178Z,76.83
2022-10-18T00:31:16.606Z,76.54
2022-10-18T00:31:48.477Z,76.13
2022-10-18T00:32:20.622Z,75.53
2022-10-18T00:32:52.754Z,75.37
2022-10-18T00:33:24.605Z,75.59
2022-10-18T00:33:59.373Z,75.65
2022-10-18T00:34:31.237Z,75.47
2022-10-18T00:35:03.708Z,75.17
2022-10-18T00:35:35.704Z,75.15
2022-10-18T00:36:07.855Z,75.07
2022-10-18T00:36:39.852Z,75.15
2022-10-18T00:37:11.697Z,75.25
2022-10-18T00:37:43.665Z,75.19
2022-10-18T00:38:15.891Z,75.62
2022-10-18T00:38:48.708Z,75.94
2022-10-18T00:39:21.693Z,76.00
2022-10-18T00:39:53.560Z,76.33
2022-10-18T00:40:25.836Z,76.33
2022-10-18T00:40:57.708Z,76.55
2022-10-18T00:41:31.678Z,76.56
2022-10-18T00:42:04.247Z,76.37
2022-10-18T00:42:37.312Z,76.10
2022-10-18T00:43:15.422Z,76.07
2022-10-18T00:43:59.993Z,75.95
2022-10-18T00:44:32.051Z,76.36
2022-10-18T00:45:16.121Z,76.23
2022-10-18T00:45:47.963Z,75.64
2022-10-18T00:46:20.170Z,75.69
2022-10-18T00:46:55.089Z,75.58
2022-10-18T00:47:27.045Z,75.68
2022-10-18T00:48:02.540Z,76.18
2022-10-18T00:48:34.550Z,76.08
2022-10-18T00:49:19.496Z,76.00
2022-10-18T00:49:56.172Z,76.12
2022-10-18T00:50:32.767Z,76.24
2022-10-18T00:51:04.688Z,75.82
2022-10-18T00:51:56.146Z,75.96
2022-10-18T00:52:39.564Z,76.10
2022-10-18T00:53:21.167Z,76.53
2022-10-18T00:53:53.065Z,76.78
2022-10-18T00:54:28.266Z,76.53
2022-10-18T00:55:00.718Z,76.82
2022-10-18T00:55:34.151Z,76.65
2022-10-18T00:56:06.500Z,76.75
2022-10-18T00:56:38.439Z,76.45
2022-10-18T00:57:11.026Z,76.63
2022-10-18T00:57:45.017Z,76.80
2022-10-18T00:58:19.282Z,77.00
2022-10-18T00:58:51.733Z,76.81
2022-10-18T00:59:24.355Z,76.61
2022-10-18T00:59:56.777Z,76.54
2022-10-18T01:00:28.713Z,76.34
2022-10-18T01:01:00.563Z,76.59
2022-10-18T01:01:32.531Z,76.52
2022-10-18T01:02:06.171Z,76.90
2022-10-18T01:02:40.051Z,77.04
2022-10-18T01:03:11.975Z,77.36
2022-10-18T01:03:43.916Z,77.39
2022-10-18T01:04:18.609Z,77.10
2022-10-18T01:04:50.477Z,76.85
2022-10-18T01:05:24.074Z,76.82
2022-10-18T01:05:55.994Z,77.41
2022-10-18T01:06:29.268Z,77.15
2022-10-18T01:07:16.282Z,76.66
2022-10-18T01:07:53.818Z,76.69
2022-10-18T01:08:45.053Z,76.21
2022-10-18T01:09:43.069Z,76.11
2022-10-18T01:10:31.028Z,76.93
2022-10-18T01:11:08.967Z,76.05
2022-10-18T01:11:58.410Z,75.53
2022-10-18T01:12:33.149Z,75.60
2022-10-18T01:13:29.945Z,76.33
2022-10-18T01:14:20.707Z,76.10
2022-10-18T01:15:06.479Z,76.27
2022-10-18T01:15:52.842Z,76.39
2022-10-18T01:16:31.252Z,76.73
2022-10-18T01:17:13.635Z,76.31
2022-10-18T01:18:27.625Z,77.01
2022-10-18T01:19:40.754Z,76.70
2022-10-18T01:20:36.526Z,77.23
2022-10-18T01:21:37.708Z,76.88
2022-10-18T01:22:14.694Z,77.07
2022-10-18T01:23:44.674Z,77.55
2022-10-18T01:24:57.748Z,77.04
2022-10-18T01:25:44.690Z,76.96
2022-10-18T01:26:16.486Z,76.17
2022-10-18T01:27:06.362Z,76.77
2022-10-18T01:27:45.549Z,76.86
2022-10-18T01:28:28.354Z,76.95
2022-10-18T01:29:06.154Z,77.05
2022-10-18T01:30:02.389Z,77.32
2022-10-18T01:30:41.705Z,76.85
2022-10-18T01:31:19.256Z,76.73
2022-10-18T01:32:01.686Z,76.25
2022-10-18T01:32:48.895Z,76.34
2022-10-18T01:33:28.072Z,76.29
2022-10-18T01:34:04.768Z,76.34
2022-10-18T01:34:41.359Z,75.93
2022-10-18T01:35:18.624Z,75.41
2022-10-18T01:36:01.013Z,75.34
2022-10-18T01:36:36.131Z,75.36
2022-10-18T01:37:14.179Z,75.73
2022-10-18T01:37:49.237Z,75.92
2022-10-18T01:38:25.034Z,76.61
2022-10-18T01:39:01.155Z,76.67
2022-10-18T01:39:37.308Z,76.81
2022-10-18T01:40:12.490Z,76.68
2022-10-18T01:40:47.456Z,76.72
2022-10-18T01:41:22.447Z,76.66
2022-10-18T01:41:57.270Z,77.09
2022-10-18T01:42:29.608Z,77.21
2022-10-18T01:43:02.606Z,77.48
2022-10-18T01:43:37.100Z,77.73
2022-10-18T01:44:12.701Z,77.53
2022-10-18T01:44:46.915Z,77.16
2022-10-18T01:45:21.237Z,76.90
2022-10-18T01:45:55.804Z,77.48
2022-10-18T01:46:29.595Z,76.83
2022-10-18T01:47:01.801Z,76.42
2022-10-18T01:47:35.345Z,76.38
2022-10-18T01:48:07.722Z,76.05
2022-10-18T01:48:40.076Z,76.54
2022-10-18T01:49:11.900Z,76.90
2022-10-18T01:49:43.799Z,77.26
2022-10-18T01:50:16.045Z,77.19
2022-10-18T01:50:47.942Z,77.25
2022-10-18T01:51:31.638Z,77.56
2022-10-18T01:52:03.554Z,77.58
2022-10-18T01:52:35.612Z,77.57
2022-10-18T01:53:25.206Z,77.60
2022-10-18T01:53:57.809Z,77.32
2022-10-18T01:54:39.192Z,77.10
2022-10-18T01:55:11.454Z,76.98
2022-10-18T01:55:56.261Z,77.02
2022-10-18T01:56:49.829Z,77.02
2022-10-18T01:57:46.494Z,77.19
2022-10-18T01:58:31.550Z,77.24
2022-10-18T01:59:15.554Z,77.15
2022-10-18T02:00:09.062Z,77.07
2022-10-18T02:00:44.376Z,77.81
2022-10-18T02:01:31.047Z,77.61
2022-10-18T02:02:21.433Z,77.04
2022-10-18T02:03:09.451Z,76.82
2022-10-18T02:03:46.581Z,76.76
2022-10-18T02:04:31.969Z,77.04
2022-10-18T02:05:33.016Z,77.32
2022-10-18T02:06:33.942Z,77.24
2022-10-18T02:07:30.225Z,76.92
2022-10-18T02:08:23.738Z,77.43
2022-10-18T02:09:13.881Z,77.74
2022-10-18T02:10:26.750Z,76.88
2022-10-18T02:11:03.328Z,76.92
2022-10-18T02:11:38.582Z,76.40
2022-10-18T02:12:14.399Z,76.41
2022-10-18T02:12:48.150Z,76.58
2022-10-18T02:13:22.408Z,76.88
2022-10-18T02:13:58.096Z,76.86
2022-10-18T02:14:30.976Z,77.02
2022-10-18T02:15:06.295Z,77.27
2022-10-18T02:15:41.290Z,77.14
2022-10-18T02:16:30.848Z,77.19
2022-10-18T02:17:07.331Z,77.47
2022-10-18T02:17:41.033Z,77.35
2022-10-18T02:18:19.189Z,77.46
2022-10-18T02:18:58.113Z,77.22
2022-10-18T02:19:38.489Z,77.19
2022-10-18T02:20:13.084Z,76.98
2022-10-18T02:20:46.832Z,77.49
2022-10-18T02:21:21.343Z,77.64
2022-10-18T02:21:55.430Z,77.64
2022-10-18T02:22:32.585Z,77.22
2022-10-18T02:23:08.162Z,77.23
2022-10-18T02:23:39.992Z,77.39
2022-10-18T02:24:14.726Z,77.50
2022-10-18T02:24:51.258Z,77.74
2022-10-18T02:25:30.433Z,77.27
2022-10-18T02:26:02.370Z,77.73
2022-10-18T02:26:34.313Z,77.78
2022-10-18T02:27:06.476Z,77.37
2022-10-18T02:27:38.319Z,76.91
2022-10-18T02:28:10.617Z,77.00
2022-10-18T02:28:43.144Z,77.05
2022-10-18T02:29:15.010Z,76.94
2022-10-18T02:29:47.271Z,77.45
2022-10-18T02:30:23.153Z,77.66
2022-10-18T02:31:20.410Z,77.59
2022-10-18T02:32:03.503Z,77.54
2022-10-18T02:32:44.772Z,77.48
2022-10-18T02:33:27.709Z,77.50
2022-10-18T02:34:11.472Z,77.34
2022-10-18T02:35:05.907Z,76.75
2022-10-18T02:35:44.727Z,77.42
2022-10-18T02:36:23.871Z,77.40
2022-10-18T02:36:59.713Z,77.27
2022-10-18T02:37:36.311Z,77.21
2022-10-18T02:38:11.828Z,77.56
2022-10-18T02:38:46.145Z,77.57
2022-10-18T02:39:29.462Z,77.69
2022-10-18T02:40:02.891Z,77.70
2022-10-18T02:40:34.977Z,77.46
2022-10-18T02:41:07.023Z,77.14
2022-10-18T02:41:38.836Z,77.22
2022-10-18T02:42:11.858Z,77.39
2022-10-18T02:42:53.975Z,77.45
2022-10-18T02:43:25.845Z,77.50
2022-10-18T02:43:58.387Z,77.75
2022-10-18T02:44:30.221Z,78.05
2022-10-18T02:45:02.306Z,78.36
2022-10-18T02:45:34.372Z,78.65
2022-10-18T02:46:06.329Z,78.66
2022-10-18T02:46:39.453Z,78.47
2022-10-18T02:47:12.499Z,78.59
2022-10-18T02:47:44.663Z,78.28
2022-10-18T02:48:16.499Z,77.57
2022-10-18T02:48:48.727Z,77.09
2022-10-18T02:49:20.993Z,77.01
2022-10-18T02:49:52.812Z,77.05
2022-10-18T02:50:24.626Z,77.14
2022-10-18T02:50:56.484Z,77.37
2022-10-18T02:51:28.337Z,77.69
2022-10-18T02:52:00.197Z,77.96
2022-10-18T02:52:32.146Z,78.06
2022-10-18T02:53:04.409Z,77.81
2022-10-18T02:53:36.273Z,77.79
2022-10-18T02:54:08.528Z,77.50
2022-10-18T02:54:40.951Z,78.04
2022-10-18T02:55:12.807Z,78.29
2022-10-18T02:55:44.665Z,78.37
2022-10-18T02:56:16.775Z,78.77
2022-10-18T02:56:48.758Z,78.45
2022-10-18T02:57:20.612Z,77.57
2022-10-18T02:57:52.578Z,77.86
2022-10-18T02:58:24.558Z,77.99
2022-10-18T02:58:56.535Z,78.22
2022-10-18T02:59:28.433Z,78.28
2022-10-18T03:00:00.665Z,78.41
2022-10-18T03:00:32.495Z,78.48
2022-10-18T03:01:04.388Z,78.49
2022-10-18T03:01:36.373Z,78.90
2022-10-18T03:02:08.281Z,79.29
2022-10-18T03:02:40.081Z,79.02
2022-10-18T03:03:11.925Z,78.58
2022-10-18T03:03:43.772Z,78.59
2022-10-18T03:04:15.606Z,78.40
2022-10-18T03:04:47.427Z,78.09
2022-10-18T03:05:19.520Z,77.97
2022-10-18T03:05:52.467Z,78.05
2022-10-18T03:06:24.384Z,78.03
2022-10-18T03:06:56.219Z,77.59
2022-10-18T03:07:28.329Z,77.32
2022-10-18T03:08:00.311Z,77.05
2022-10-18T03:08:32.165Z,77.00
2022-10-18T03:09:05.555Z,77.22
2022-10-18T03:09:37.417Z,77.19
2022-10-18T03:10:09.422Z,76.99
2022-10-18T03:10:46.481Z,77.36
2022-10-18T03:11:18.418Z,77.76
2022-10-18T03:11:50.288Z,77.98
2022-10-18T03:12:22.208Z,77.61
2022-10-18T03:12:54.118Z,77.12
2022-10-18T03:13:26.018Z,76.59
2022-10-18T03:13:57.898Z,76.57
2022-10-18T03:14:30.010Z,76.92
2022-10-18T03:15:01.951Z,76.95
2022-10-18T03:15:33.865Z,76.64
2022-10-18T03:16:06.064Z,76.70
2022-10-18T03:16:38.010Z,76.68
2022-10-18T03:17:09.996Z,76.71
2022-10-18T03:17:41.887Z,76.85
2022-10-18T03:18:13.736Z,77.16
2022-10-18T03:18:45.660Z,77.82
2022-10-18T03:19:17.547Z,78.21
2022-10-18T03:19:49.450Z,78.53
2022-10-18T03:20:21.374Z,78.49
2022-10-18T03:20:53.205Z,78.39
2022-10-18T03:21:25.315Z,78.40
2022-10-18T03:21:57.141Z,78.72
2022-10-18T03:23:07.223Z,78.50
2022-10-18T03:23:40.038Z,78.54
2022-10-18T03:24:12.028Z,77.79
2022-10-18T03:24:43.879Z,77.14
2022-10-18T03:25:15.761Z,77.33
2022-10-18T03:25:49.018Z,77.70
2022-10-18T03:26:21.633Z,77.96
2022-10-18T03:26:53.780Z,77.54
2022-10-18T03:27:25.649Z,77.26
2022-10-18T03:27:57.486Z,77.38
2022-10-18T03:28:29.567Z,77.27
2022-10-18T03:29:01.535Z,77.50
2022-10-18T03:29:33.613Z,77.58
2022-10-18T03:30:05.824Z,77.44
2022-10-18T03:30:38.960Z,76.90
2022-10-18T03:31:10.808Z,76.90
2022-10-18T03:31:42.887Z,76.74
2022-10-18T03:32:15.026Z,76.77
2022-10-18T03:32:46.851Z,77.19
2022-10-18T03:33:18.713Z,77.54
2022-10-18T03:33:50.546Z,77.47
2022-10-18T03:34:22.412Z,77.30
2022-10-18T03:34:55.052Z,77.21
2022-10-18T03:35:26.868Z,77.38
2022-10-18T03:35:58.754Z,77.45
2022-10-18T03:36:30.638Z,76.89
2022-10-18T03:37:04.786Z,76.69
2022-10-18T03:37:39.026Z,77.23
2022-10-18T03:38:10.860Z,77.69
2022-10-18T03:38:42.724Z,77.62
2022-10-18T03:39:14.635Z,77.31
2022-10-18T03:39:46.445Z,77.01
2022-10-18T03:40:18.422Z,76.62
2022-10-18T03:40:50.266Z,76.16
2022-10-18T03:41:22.128Z,76.15
2022-10-18T03:41:53.949Z,76.40
2022-10-18T03:42:25.819Z,76.78
2022-10-18T03:42:57.958Z,76.81
2022-10-18T03:43:29.846Z,77.12
2022-10-18T03:44:01.685Z,77.30
2022-10-18T03:44:33.805Z,77.34
2022-10-18T03:45:06.170Z,77.20
2022-10-18T03:45:38.088Z,76.99
2022-10-18T03:46:10.004Z,76.90
2022-10-18T03:46:41.902Z,76.80
2022-10-18T03:47:13.869Z,76.84
2022-10-18T03:47:46.079Z,77.08
2022-10-18T03:48:18.241Z,77.22
2022-10-18T03:48:50.169Z,77.25
2022-10-18T03:49:22.096Z,77.16
2022-10-18T03:49:56.998Z,76.95
2022-10-18T03:50:29.253Z,76.81
2022-10-18T03:51:01.063Z,76.94
2022-10-18T03:51:32.916Z,77.07
2022-10-18T03:52:04.791Z,77.32
2022-10-18T03:52:36.638Z,77.44
2022-10-18T03:53:08.589Z,77.27
2022-10-18T03:53:40.758Z,76.79
2022-10-18T03:54:12.572Z,76.54
2022-10-18T03:54:44.429Z,76.86
2022-10-18T03:55:16.443Z,77.18
2022-10-18T03:55:52.799Z,76.91
2022-10-18T03:56:24.860Z,76.64
2022-10-18T03:56:56.735Z,76.57
2022-10-18T03:57:28.562Z,76.66
2022-10-18T03:58:00.428Z,78.30
2022-10-18T03:59:09.358Z,77.36
2022-10-18T03:59:41.308Z,77.92
2022-10-18T04:00:14.451Z,78.04
2022-10-18T04:00:52.983Z,77.46
2022-10-18T04:01:25.007Z,77.01
2022-10-18T04:01:57.032Z,77.21
2022-10-18T04:02:29.192Z,77.61
2022-10-18T04:03:01.405Z,77.41
2022-10-18T04:03:33.289Z,76.92
2022-10-18T04:04:05.107Z,77.08
2022-10-18T04:04:36.917Z,77.43
2022-10-18T04:05:09.298Z,78.01
2022-10-18T04:05:41.142Z,77.55
2022-10-18T04:06:13.352Z,82.21
2022-10-18T04:06:45.230Z,79.28
2022-10-18T04:07:17.099Z,79.09
2022-10-18T04:07:48.949Z,77.83
2022-10-18T04:08:20.815Z,77.47
2022-10-18T04:08:52.679Z,77.63
2022-10-18T04:09:24.515Z,77.90
2022-10-18T04:09:56.336Z,77.86
2022-10-18T04:10:28.490Z,78.14
2022-10-18T04:11:04.302Z,77.88
2022-10-18T04:11:36.587Z,77.46
2022-10-18T04:12:08.426Z,77.94
2022-10-18T04:12:40.393Z,77.63
2022-10-18T04:13:12.300Z,77.35
2022-10-18T04:13:44.119Z,77.48
2022-10-18T04:14:16.036Z,77.64
2022-10-18T04:14:48.656Z,77.43
2022-10-18T04:15:20.899Z,77.23
2022-10-18T04:15:52.711Z,76.93
2022-10-18T04:16:24.672Z,76.79
2022-10-18T04:16:56.896Z,77.27
2022-10-18T04:17:28.726Z,77.62
2022-10-18T04:18:01.303Z,77.41
2022-10-18T04:18:33.231Z,77.56
2022-10-18T04:19:05.113Z,77.68
2022-10-18T04:19:36.969Z,77.89
2022-10-18T04:20:09.256Z,78.04
2022-10-18T04:20:41.073Z,77.83
2022-10-18T04:21:12.894Z,77.30
2022-10-18T04:21:44.756Z,77.06
2022-10-18T04:22:16.900Z,77.50
2022-10-18T04:22:52.605Z,77.44
2022-10-18T04:23:24.676Z,77.95
2022-10-18T04:23:56.482Z,78.12
2022-10-18T04:24:28.368Z,78.23
2022-10-18T04:25:00.356Z,78.28
2022-10-18T04:25:32.260Z,78.21
2022-10-18T04:26:04.247Z,78.21
2022-10-18T04:26:36.633Z,78.31
2022-10-18T04:27:08.961Z,78.17
2022-10-18T04:27:41.201Z,77.52
2022-10-18T04:28:13.062Z,77.27
2022-10-18T04:28:45.587Z,77.65
2022-10-18T04:29:17.545Z,77.80
2022-10-18T04:29:49.436Z,77.58
2022-10-18T04:30:21.460Z,77.58
2022-10-18T04:30:53.998Z,77.81
2022-10-18T04:31:25.818Z,78.54
2022-10-18T04:31:57.649Z,78.25
2022-10-18T04:32:31.415Z,78.54
2022-10-18T04:33:03.605Z,78.89
2022-10-18T04:33:35.494Z,78.77
2022-10-18T04:34:07.373Z,78.56
2022-10-18T04:34:39.265Z,78.55
2022-10-18T04:35:11.573Z,78.46
2022-10-18T04:35:43.478Z,78.53
2022-10-18T04:36:15.303Z,78.60
2022-10-18T04:36:47.140Z,77.79
2022-10-18T04:37:18.966Z,77.38
2022-10-18T04:37:50.973Z,77.20
2022-10-18T04:38:23.149Z,76.99
2022-10-18T04:38:55.023Z,77.12
2022-10-18T04:39:26.911Z,77.29
2022-10-18T04:39:59.000Z,77.61
2022-10-18T04:40:30.829Z,77.69
2022-10-18T04:41:02.704Z,77.82
2022-10-18T04:41:34.644Z,77.81
2022-10-18T04:42:06.509Z,77.67
2022-10-18T04:42:38.349Z,77.72
2022-10-18T04:43:10.265Z,78.14
2022-10-18T04:43:42.511Z,78.39
2022-10-18T04:44:14.450Z,78.16
2022-10-18T04:44:46.286Z,78.39
2022-10-18T04:45:18.871Z,78.33
2022-10-18T04:45:51.262Z,77.65
2022-10-18T04:46:23.197Z,76.95
2022-10-18T04:46:55.097Z,76.91
2022-10-18T04:47:26.999Z,77.04
2022-10-18T04:47:58.873Z,89.91
2022-10-18T04:48:30.719Z,84.06
2022-10-18T04:49:03.347Z,84.45
2022-10-18T04:49:35.269Z,80.03
2022-10-18T04:50:07.464Z,79.39
2022-10-18T04:50:39.285Z,79.16
2022-10-18T04:51:18.575Z,78.07
2022-10-18T04:51:50.420Z,76.77
2022-10-18T04:52:22.200Z,77.33
2022-10-18T04:52:54.046Z,77.14
2022-10-18T04:53:25.904Z,76.78
2022-10-18T04:53:57.748Z,76.33
2022-10-18T04:54:29.884Z,76.28
2022-10-18T04:55:01.755Z,76.40
2022-10-18T04:55:33.572Z,76.63
2022-10-18T04:56:05.816Z,76.97
2022-10-18T04:56:37.894Z,77.07
2022-10-18T04:57:09.813Z,76.63
2022-10-18T04:57:41.785Z,76.90
2022-10-18T04:58:13.663Z,77.56
2022-10-18T04:58:45.467Z,76.95
2022-10-18T04:59:17.292Z,76.61
2022-10-18T04:59:49.467Z,77.01
2022-10-18T05:00:21.760Z,77.18
2022-10-18T05:00:54.097Z,76.47
2022-10-18T05:01:25.987Z,76.40
2022-10-18T05:01:58.028Z,76.30
2022-10-18T05:02:30.357Z,76.52
2022-10-18T05:03:02.541Z,77.04
2022-10-18T05:03:34.902Z,77.17
2022-10-18T05:04:06.748Z,76.94
2022-10-18T05:04:38.591Z,76.59
2022-10-18T05:05:14.006Z,75.71
2022-10-18T05:06:03.199Z,75.57
2022-10-18T05:06:35.483Z,75.63
2022-10-18T05:07:07.371Z,75.61
2022-10-18T05:07:39.209Z,75.29
2022-10-18T05:08:11.085Z,75.55
2022-10-18T05:08:42.933Z,75.66
2022-10-18T05:09:14.860Z,76.09
2022-10-18T05:09:46.687Z,76.27
2022-10-18T05:10:18.908Z,76.66
2022-10-18T05:10:50.737Z,76.74
2022-10-18T05:11:22.599Z,76.72
2022-10-18T05:11:54.476Z,77.08
2022-10-18T05:12:26.376Z,77.29
2022-10-18T05:12:58.264Z,77.35
2022-10-18T05:13:30.451Z,77.23
2022-10-18T05:14:02.286Z,76.68
2022-10-18T05:14:34.268Z,76.34
2022-10-18T05:15:06.481Z,76.08
2022-10-18T05:15:38.666Z,76.00
2022-10-18T05:16:10.905Z,75.66
2022-10-18T05:16:42.762Z,75.47
2022-10-18T05:17:14.840Z,75.75
2022-10-18T05:17:47.004Z,75.64
2022-10-18T05:18:18.890Z,75.96
2022-10-18T05:18:50.745Z,75.84
2022-10-18T05:19:22.570Z,75.80
2022-10-18T05:19:54.424Z,75.92
2022-10-18T05:20:26.243Z,75.84
2022-10-18T05:20:58.504Z,76.15
2022-10-18T05:21:30.365Z,76.38
2022-10-18T05:22:02.238Z,76.30
2022-10-18T05:22:34.208Z,76.23
2022-10-18T05:23:06.400Z,76.12
2022-10-18T05:23:38.506Z,75.96
2022-10-18T05:24:13.479Z,75.64
2022-10-18T05:24:45.340Z,75.40
2022-10-18T05:25:17.358Z,75.23
2022-10-18T05:25:49.924Z,75.09
2022-10-18T05:26:22.194Z,75.16
2022-10-18T05:26:54.018Z,75.17
2022-10-18T05:27:25.883Z,75.40
2022-10-18T05:27:58.014Z,75.63
2022-10-18T05:28:40.114Z,75.95
2022-10-18T05:29:12.352Z,76.15
2022-10-18T05:29:44.240Z,76.09
2022-10-18T05:30:16.132Z,76.04
2022-10-18T05:30:47.983Z,76.28
2022-10-18T05:31:19.972Z,76.41
2022-10-18T05:31:52.320Z,76.53
2022-10-18T05:32:24.184Z,76.52
2022-10-18T05:32:56.012Z,76.65
2022-10-18T05:33:28.285Z,76.79
2022-10-18T05:34:01.577Z,76.94
2022-10-18T05:34:33.602Z,76.88
2022-10-18T05:35:05.851Z,76.49
2022-10-18T05:35:37.753Z,76.47
2022-10-18T05:36:10.574Z,76.22
2022-10-18T05:36:42.534Z,76.32
2022-10-18T05:37:14.765Z,76.45
2022-10-18T05:37:46.578Z,76.46
2022-10-18T05:38:18.411Z,76.58
2022-10-18T05:38:50.409Z,76.60
2022-10-18T05:39:22.251Z,76.54
2022-10-18T05:39:54.126Z,76.22
2022-10-18T05:40:26.015Z,76.09
2022-10-18T05:40:58.973Z,76.27
2022-10-18T05:41:31.398Z,76.76
2022-10-18T05:42:03.479Z,76.84
2022-10-18T05:42:35.810Z,78.73
2022-10-18T05:43:07.683Z,86.98
2022-10-18T05:43:40.494Z,84.35
2022-10-18T05:44:12.363Z,79.60
2022-10-18T05:44:44.177Z,79.47
2022-10-18T05:45:16.115Z,77.45
2022-10-18T05:45:50.028Z,76.52
2022-10-18T05:46:22.296Z,76.14
2022-10-18T05:46:54.168Z,75.75
2022-10-18T05:47:26.018Z,75.48
2022-10-18T05:47:58.270Z,76.59
2022-10-18T05:48:30.156Z,75.96
2022-10-18T05:49:02.005Z,75.59
2022-10-18T05:49:33.909Z,75.61
2022-10-18T05:50:05.872Z,75.68
2022-10-18T05:50:40.245Z,75.16
2022-10-18T05:51:12.396Z,75.13
2022-10-18T05:51:44.231Z,74.86
2022-10-18T05:52:17.116Z,74.78
2022-10-18T05:52:48.926Z,74.39
2022-10-18T05:53:37.494Z,73.33
2022-10-18T05:54:12.389Z,71.75
2022-10-18T05:54:44.243Z,68.94
2022-10-18T05:55:16.141Z,66.89
2022-10-18T05:55:48.003Z,65.51
2022-10-18T05:56:19.878Z,64.88
2022-10-18T05:56:51.755Z,64.44
2022-10-18T05:57:23.611Z,64.85
2022-10-18T05:57:55.483Z,64.82
2022-10-18T05:58:27.648Z,64.60
2022-10-18T05:58:59.551Z,63.86
2022-10-18T05:59:31.465Z,63.38
2022-10-18T06:00:04.608Z,63.10
2022-10-18T06:00:43.693Z,61.66
2022-10-18T06:01:16.071Z,59.50
2022-10-18T06:01:47.915Z,58.04
2022-10-18T06:02:19.830Z,56.65
2022-10-18T06:02:51.844Z,54.71
2022-10-18T06:03:23.697Z,53.45
2022-10-18T06:03:55.543Z,52.61
2022-10-18T06:04:27.342Z,51.81
2022-10-18T06:04:59.751Z,50.30
2022-10-18T06:05:31.685Z,50.31
2022-10-18T06:06:08.577Z,49.42
2022-10-18T06:06:40.769Z,49.02
2022-10-18T06:07:12.636Z,47.97
2022-10-18T06:07:44.539Z,47.58
2022-10-18T06:08:16.515Z,46.53
2022-10-18T06:08:50.040Z,46.32
2022-10-18T06:09:21.971Z,45.43
2022-10-18T06:09:53.803Z,44.43
2022-10-18T06:10:25.643Z,43.67
2022-10-18T06:10:57.550Z,43.35
2022-10-18T06:11:30.622Z,43.43
2022-10-18T06:12:03.436Z,42.76
2022-10-18T06:12:35.244Z,42.54
2022-10-18T06:13:07.122Z,42.25
2022-10-18T06:13:50.841Z,42.00
2022-10-18T06:14:22.719Z,41.42
2022-10-18T06:14:54.552Z,40.70
2022-10-18T06:15:26.427Z,40.12
2022-10-18T06:15:58.275Z,39.75
2022-10-18T06:16:32.662Z,40.12
2022-10-18T06:17:05.575Z,39.93
2022-10-18T06:17:37.775Z,40.25
2022-10-18T06:18:10.002Z,40.88
2022-10-18T06:18:42.731Z,40.26
2022-10-18T06:19:14.618Z,39.26
2022-10-18T06:19:46.491Z,38.95
2022-10-18T06:20:18.335Z,38.56
2022-10-18T06:20:50.182Z,38.51
2022-10-18T06:21:23.412Z,39.45
2022-10-18T06:21:55.277Z,39.11
2022-10-18T06:22:27.393Z,38.80
2022-10-18T06:22:59.216Z,38.07
2022-10-18T06:23:31.142Z,37.67
2022-10-18T06:24:02.999Z,38.03
2022-10-18T06:24:34.892Z,38.04
2022-10-18T06:25:07.118Z,39.09
2022-10-18T06:25:38.944Z,39.17
2022-10-18T06:26:11.687Z,39.13
2022-10-18T06:26:43.566Z,38.75
2022-10-18T06:27:15.399Z,37.59
2022-10-18T06:27:47.552Z,37.06
2022-10-18T06:28:19.551Z,36.80
2022-10-18T06:28:51.565Z,36.58
2022-10-18T06:29:23.422Z,36.80
2022-10-18T06:29:55.291Z,36.46
2022-10-18T06:30:27.119Z,36.75
2022-10-18T06:30:58.976Z,37.13
2022-10-18T06:31:30.851Z,36.99
2022-10-18T06:32:03.182Z,37.04
2022-10-18T06:32:35.004Z,36.96
2022-10-18T06:33:07.149Z,36.96
2022-10-18T06:33:39.373Z,36.36
2022-10-18T06:34:11.322Z,36.06
2022-10-18T06:34:43.150Z,36.26
2022-10-18T06:35:15.080Z,36.50
2022-10-18T06:36:07.636Z,36.72
2022-10-18T06:36:39.470Z,36.56
2022-10-18T06:37:11.482Z,36.33
2022-10-18T06:38:20.387Z,37.14
2022-10-18T06:38:53.474Z,38.07
2022-10-18T06:39:26.061Z,38.20
2022-10-18T06:39:58.067Z,37.81
2022-10-18T06:40:30.964Z,37.71
2022-10-18T06:41:03.605Z,37.52
2022-10-18T06:41:35.437Z,37.73
2022-10-18T06:42:07.503Z,38.29
2022-10-18T06:42:39.350Z,38.13
2022-10-18T06:43:20.511Z,38.22
2022-10-18T06:43:57.385Z,38.88
2022-10-18T06:44:29.244Z,38.98
2022-10-18T06:45:01.160Z,40.16
2022-10-18T06:45:33.622Z,40.34
2022-10-18T06:46:07.684Z,40.46
2022-10-18T06:46:49.433Z,40.74
2022-10-18T06:47:21.345Z,41.10
2022-10-18T06:47:53.189Z,41.69
2022-10-18T06:48:25.082Z,42.96
2022-10-18T06:48:57.721Z,43.09
2022-10-18T06:49:29.603Z,42.97
2022-10-18T06:50:01.481Z,43.13
2022-10-18T06:50:33.301Z,43.45
2022-10-18T06:51:06.867Z,43.67
2022-10-18T06:51:38.900Z,44.66
2022-10-18T06:52:10.755Z,45.83
2022-10-18T06:52:42.614Z,46.26
2022-10-18T06:53:14.445Z,45.96
2022-10-18T06:53:59.066Z,45.73
2022-10-18T06:54:38.465Z,45.78
2022-10-18T06:55:10.327Z,45.94
2022-10-18T06:55:42.178Z,46.32
2022-10-18T06:56:14.083Z,46.39
2022-10-18T06:56:46.124Z,47.93
2022-10-18T06:57:18.023Z,49.55
2022-10-18T06:57:49.861Z,50.76
2022-10-18T06:58:21.711Z,50.22
2022-10-18T06:58:53.566Z,49.33
2022-10-18T06:59:28.857Z,47.75
2022-10-18T07:00:04.872Z,47.32
2022-10-18T07:00:37.056Z,45.61
2022-10-18T07:01:11.338Z,46.13
2022-10-18T07:01:43.848Z,45.37
2022-10-18T07:02:19.452Z,45.16
2022-10-18T07:02:51.301Z,44.74
2022-10-18T07:03:23.411Z,44.89
2022-10-18T07:03:56.005Z,44.39
2022-10-18T07:04:30.870Z,44.09
2022-10-18T07:05:02.836Z,43.37
2022-10-18T07:05:34.976Z,43.73
2022-10-18T07:06:08.841Z,44.84
2022-10-18T07:06:40.787Z,45.48
2022-10-18T07:07:12.771Z,45.16
2022-10-18T07:07:44.688Z,44.61
2022-10-18T07:08:17.700Z,45.15
2022-10-18T07:08:50.969Z,43.79
2022-10-18T07:09:22.816Z,42.17
2022-10-18T07:09:54.650Z,42.51
2022-10-18T07:10:26.489Z,42.85
2022-10-18T07:10:58.856Z,42.71
2022-10-18T07:11:30.739Z,42.73
2022-10-18T07:12:02.630Z,42.81
2022-10-18T07:12:34.747Z,43.47
2022-10-18T07:13:31.374Z,44.23
2022-10-18T07:14:03.299Z,44.44
2022-10-18T07:14:35.131Z,42.82
2022-10-18T07:15:09.518Z,42.48
2022-10-18T07:15:41.638Z,42.94
2022-10-18T07:16:18.312Z,43.07
2022-10-18T07:16:50.512Z,43.02
2022-10-18T07:17:22.332Z,42.82
2022-10-18T07:17:54.150Z,42.08
2022-10-18T07:18:25.989Z,42.28
2022-10-18T07:18:59.160Z,43.32
2022-10-18T07:19:31.088Z,43.16
2022-10-18T07:20:04.354Z,41.99
2022-10-18T07:20:36.218Z,40.40
2022-10-18T07:21:15.920Z,40.04
2022-10-18T07:21:48.014Z,40.34
2022-10-18T07:22:19.881Z,39.73